Time;durP1;ratioP1;P1;durP2;ratioP2;P2;SDS_P1;SDS_P2;PMS_P1;PMS_P2;Temp;Humidity;BMP_temperature;BMP_pressure;BME280_temperature;BME280_humidity;BME280_pressure;Samples;Min_cycle;Max_cycle;Signal;HPM_P1;HPM_P2
2023/10/08 04:01:45;;;;;;;1.60;1.60;;;11.20;99.90;;;;;;5314146;23;20240;-71
2023/10/08 04:04:14;;;;;;;3.38;1.40;;;11.20;99.90;;;;;;4945418;28;20588;-71
2023/10/08 04:06:48;;;;;;;5.07;1.90;;;11.20;99.90;;;;;;4953857;28;20218;-71
2023/10/08 04:09:23;;;;;;;2.80;2.08;;;11.20;99.90;;;;;;4954312;28;20209;-71
2023/10/08 04:11:55;;;;;;;2.25;2.08;;;11.20;99.90;;;;;;4953927;28;20261;-71
2023/10/08 04:14:24;;;;;;;1.77;1.70;;;11.20;99.90;;;;;;4954080;28;20213;-70
2023/10/08 04:16:52;;;;;;;1.70;1.40;;;11.20;99.90;;;;;;4954030;28;20299;-71
2023/10/08 04:19:21;;;;;;;2.22;1.45;;;11.10;99.90;;;;;;4953727;28;20228;-71
2023/10/08 04:21:53;;;;;;;4.10;1.48;;;11.20;99.90;;;;;;4954950;28;20699;-71
2023/10/08 04:24:27;;;;;;;1.88;1.77;;;11.10;99.90;;;;;;4958118;28;20292;-70
2023/10/08 04:26:56;;;;;;;3.30;1.77;;;11.10;99.90;;;;;;4958011;28;20256;-72
2023/10/08 04:29:23;;;;;;;1.75;1.65;;;11.20;99.90;;;;;;4939055;28;20215;-72
2023/10/08 04:32:00;;;;;;;2.67;1.60;;;11.10;99.90;;;;;;4938542;29;20257;-72
2023/10/08 04:34:29;;;;;;;1.90;1.13;;;11.10;99.90;;;;;;4950122;29;20303;-72
2023/10/08 04:37:00;;;;;;;1.85;1.33;;;11.10;99.90;;;;;;4957944;28;20224;-72
2023/10/08 04:39:31;;;;;;;2.90;1.50;;;11.10;99.90;;;;;;4957725;28;20336;-72
2023/10/08 04:42:06;;;;;;;2.90;2.78;;;11.10;99.90;;;;;;4957587;28;20663;-72
2023/10/08 04:44:33;;;;;;;2.53;1.30;;;11.10;99.90;;;;;;4957336;28;20217;-72
2023/10/08 04:47:04;;;;;;;1.83;1.40;;;11.10;99.90;;;;;;4957809;28;20461;-72
2023/10/08 04:49:34;;;;;;;2.00;1.90;;;11.10;99.90;;;;;;4957705;28;20209;-72
2023/10/08 04:52:07;;;;;;;3.90;1.90;;;11.10;99.90;;;;;;4957397;28;20233;-72
2023/10/08 04:54:40;;;;;;;1.60;1.50;;;11.10;99.90;;;;;;4957300;28;20220;-72
2023/10/08 04:57:07;;;;;;;7.13;2.90;;;11.10;99.90;;;;;;4957253;28;20219;-73
2023/10/08 04:59:34;;;;;;;12.32;4.30;;;11.10;99.90;;;;;;4957043;28;20499;-72
2023/10/08 05:02:19;;;;;;;4.93;3.90;;;11.10;99.90;;;;;;4957215;28;20293;-72
2023/10/08 05:04:56;;;;;;;7.50;3.78;;;11.10;99.90;;;;;;4957162;28;20523;-72
2023/10/08 05:10:30;;;;;;;5.38;4.80;;;11.10;99.90;;;;;;4956892;28;20742;-73
2023/10/08 05:13:14;;;;;;;4.38;3.50;;;11.10;99.90;;;;;;4941770;28;20224;-72
2023/10/08 05:15:49;;;;;;;3.22;2.67;;;11.10;99.90;;;;;;4943030;29;20215;-72
2023/10/08 05:18:23;;;;;;;6.82;2.25;;;11.10;99.90;;;;;;4956945;28;20703;-72
2023/10/08 05:21:04;;;;;;;1.63;1.63;;;11.00;99.90;;;;;;4956985;28;20264;-72
2023/10/08 05:26:30;;;;;;;1.55;1.45;;;11.00;99.90;;;;;;4931960;28;20296;-73
2023/10/08 05:29:00;;;;;;;2.53;1.60;;;11.00;99.90;;;;;;4956885;28;20209;-72
2023/10/08 05:31:46;;;;;;;1.30;1.20;;;11.00;99.90;;;;;;4956561;28;20711;-72
2023/10/08 05:34:17;;;;;;;3.45;1.02;;;11.00;99.90;;;;;;4956925;28;20237;-72
2023/10/08 05:37:11;;;;;;;1.63;1.45;;;11.00;99.90;;;;;;4951109;28;20297;-71
2023/10/08 05:39:46;;;;;;;2.10;1.88;;;11.00;99.90;;;;;;4950260;29;20339;-72
2023/10/08 05:42:19;;;;;;;3.65;1.58;;;11.00;99.90;;;;;;4956400;28;20655;-72
2023/10/08 05:45:13;;;;;;;1.05;1.05;;;11.00;99.90;;;;;;4956317;28;20275;-72
2023/10/08 05:47:41;;;;;;;1.60;1.45;;;11.00;99.90;;;;;;4956441;29;20300;-72
2023/10/08 05:53:01;;;;;;;3.85;1.80;;;11.00;99.90;;;;;;4942209;28;20221;-72
2023/10/08 05:55:34;;;;;;;1.80;1.67;;;11.00;99.90;;;;;;4948976;29;20642;-71
2023/10/08 05:58:14;;;;;;;2.33;2.13;;;11.00;99.90;;;;;;4956611;28;20212;-72
2023/10/08 06:01:06;;;;;;;1.48;1.45;;;11.00;99.90;;;;;;4956456;28;20706;-71
2023/10/08 06:03:35;;;;;;;2.15;1.95;;;11.00;99.90;;;;;;4956353;28;20660;-72
2023/10/08 06:09:06;;;;;;;2.85;2.70;;;11.00;99.90;;;;;;4941170;29;20253;-72
2023/10/08 06:11:44;;;;;;;4.80;1.27;;;10.90;99.90;;;;;;4955936;28;20233;-72
2023/10/08 06:14:28;;;;;;;1.88;1.20;;;10.90;99.90;;;;;;4955842;28;20232;-72
2023/10/08 06:17:13;;;;;;;1.60;1.60;;;10.90;99.90;;;;;;4956142;28;20240;-72
2023/10/08 06:19:39;;;;;;;2.13;1.92;;;10.90;99.90;;;;;;4955826;28;20363;-72
2023/10/08 06:22:06;;;;;;;1.60;1.50;;;10.80;99.90;;;;;;4939253;28;20607;-72
2023/10/08 06:24:38;;;;;;;5.68;2.20;;;10.80;99.90;;;;;;4940566;29;20688;-72
2023/10/08 06:27:05;;;;;;;2.35;2.25;;;10.90;99.90;;;;;;4955668;28;20696;-72
2023/10/08 06:29:33;;;;;;;1.75;1.65;;;10.80;99.90;;;;;;4955867;28;20215;-72
2023/10/08 06:32:02;;;;;;;7.72;1.95;;;10.80;99.90;;;;;;4955572;28;20237;-72
2023/10/08 06:34:29;;;;;;;1.70;1.60;;;10.80;99.90;;;;;;4955875;28;20316;-73
2023/10/08 06:36:58;;;;;;;2.03;1.92;;;10.90;99.90;;;;;;4955580;28;20220;-71
2023/10/08 06:39:33;;;;;;;2.55;2.05;;;10.90;99.90;;;;;;4955609;28;20240;-72
2023/10/08 06:42:02;;;;;;;3.88;1.42;;;10.90;99.90;;;;;;4955534;28;20232;-72
2023/10/08 06:44:29;;;;;;;1.45;1.45;;;10.90;99.90;;;;;;4955175;28;20217;-72
2023/10/08 06:46:58;;;;;;;1.40;1.30;;;10.90;99.90;;;;;;4955428;28;20216;-72
2023/10/08 06:49:25;;;;;;;4.63;2.23;;;10.90;99.90;;;;;;4955024;28;20213;-73
2023/10/08 06:51:53;;;;;;;2.53;1.55;;;10.90;99.90;;;;;;4955396;28;20484;-72
2023/10/08 06:54:22;;;;;;;3.60;1.58;;;10.90;99.90;;;;;;4944810;28;20269;-73
2023/10/08 06:56:51;;;;;;;8.95;1.80;;;10.90;99.90;;;;;;4936255;29;20581;-72
2023/10/08 06:59:22;;;;;;;1.23;1.17;;;10.90;99.90;;;;;;4951849;29;20677;-72
2023/10/08 07:01:51;;;;;;;1.98;1.40;;;11.00;99.90;;;;;;4936032;29;20276;-72
2023/10/08 07:04:18;;;;;;;3.47;1.55;;;11.00;99.90;;;;;;4938300;29;20209;-72
2023/10/08 07:06:46;;;;;;;6.05;1.30;;;11.10;99.90;;;;;;4955556;28;20217;-71
2023/10/08 07:09:22;;;;;;;1.65;1.55;;;11.10;99.90;;;;;;4947299;28;20649;-72
2023/10/08 07:11:54;;;;;;;1.10;1.10;;;11.10;99.90;;;;;;4955024;28;20284;-71
2023/10/08 07:14:26;;;;;;;2.70;1.67;;;11.10;99.90;;;;;;4945223;28;20616;-71
2023/10/08 07:16:54;;;;;;;3.30;1.00;;;11.20;99.90;;;;;;4937186;29;20567;-73
2023/10/08 07:19:32;;;;;;;1.58;1.58;;;11.20;99.90;;;;;;4948619;29;20303;-73
2023/10/08 07:22:03;;;;;;;3.58;1.52;;;11.20;99.90;;;;;;4955845;28;20240;-73
2023/10/08 07:24:32;;;;;;;3.15;1.40;;;11.20;99.90;;;;;;4948172;29;20220;-72
2023/10/08 07:26:59;;;;;;;1.73;1.63;;;11.20;99.90;;;;;;4956126;28;20213;-72
2023/10/08 07:29:27;;;;;;;0.95;0.95;;;11.30;99.90;;;;;;4952356;28;20265;-72
2023/10/08 07:31:54;;;;;;;9.47;2.10;;;11.30;99.90;;;;;;4936368;29;20616;-72
2023/10/08 07:34:26;;;;;;;3.70;1.60;;;11.40;99.90;;;;;;4936231;29;20469;-72
2023/10/08 07:36:55;;;;;;;4.03;1.50;;;11.40;99.90;;;;;;4936192;29;20470;-72
2023/10/08 07:39:26;;;;;;;1.88;1.20;;;11.40;99.90;;;;;;4935866;29;20478;-72
2023/10/08 07:41:55;;;;;;;1.65;1.33;;;11.50;99.90;;;;;;4950343;29;20375;-72
2023/10/08 07:44:22;;;;;;;1.73;1.40;;;11.50;99.90;;;;;;4954650;28;20300;-72
2023/10/08 07:46:51;;;;;;;1.75;1.30;;;11.50;99.90;;;;;;4954466;28;20220;-71
2023/10/08 07:49:18;;;;;;;4.05;1.75;;;11.50;99.90;;;;;;4954709;28;20264;-72
2023/10/08 07:51:50;;;;;;;2.92;1.50;;;11.60;99.90;;;;;;4954387;28;20256;-72
2023/10/08 07:54:19;;;;;;;3.22;1.63;;;11.60;99.90;;;;;;4954555;28;20220;-72
2023/10/08 07:56:46;;;;;;;0.83;0.80;;;11.70;99.90;;;;;;4948261;28;20217;-72
2023/10/08 07:59:14;;;;;;;1.33;1.30;;;12.00;99.90;;;;;;4952543;29;20492;-73
2023/10/08 08:01:42;;;;;;;1.40;1.30;;;12.50;99.90;;;;;;4954412;28;20731;-72
2023/10/08 08:04:14;;;;;;;2.47;1.20;;;12.70;99.90;;;;;;4953444;28;20567;-73
2023/10/08 08:06:41;;;;;;;1.67;0.70;;;12.60;99.90;;;;;;4948270;29;20923;-72
2023/10/08 08:09:17;;;;;;;0.80;0.80;;;12.50;99.90;;;;;;4953850;28;20464;-72
2023/10/08 08:11:46;;;;;;;1.13;0.80;;;12.40;99.90;;;;;;4934953;29;20496;-72
2023/10/08 08:14:16;;;;;;;1.50;0.77;;;12.30;99.90;;;;;;4936746;29;20474;-73
2023/10/08 08:16:46;;;;;;;0.87;0.87;;;12.30;99.90;;;;;;4954158;28;20947;-73
2023/10/08 08:19:15;;;;;;;1.47;0.90;;;12.30;99.90;;;;;;4954038;28;21015;-72
2023/10/08 08:21:45;;;;;;;0.93;0.70;;;12.30;99.90;;;;;;4954323;28;20583;-73
2023/10/08 08:24:12;;;;;;;1.07;1.07;;;12.30;99.90;;;;;;4945411;28;20464;-73
2023/10/08 08:26:44;;;;;;;1.57;0.57;;;12.30;99.90;;;;;;4943290;29;20473;-72
2023/10/08 08:29:15;;;;;;;4.57;1.10;;;12.40;99.90;;;;;;4936890;29;20481;-73
2023/10/08 08:31:46;;;;;;;1.13;0.70;;;12.40;99.90;;;;;;4954394;28;20547;-73
2023/10/08 08:34:19;;;;;;;0.97;0.87;;;12.40;99.90;;;;;;4954599;28;20960;-72
2023/10/08 08:36:48;;;;;;;1.80;0.87;;;12.40;99.90;;;;;;4954672;28;20912;-72
2023/10/08 08:39:27;;;;;;;1.90;1.53;;;12.40;99.90;;;;;;4946599;28;20584;-72
2023/10/08 08:41:59;;;;;;;0.87;0.87;;;12.40;99.90;;;;;;4954652;28;20971;-72
2023/10/08 08:44:30;;;;;;;0.87;0.87;;;12.50;99.90;;;;;;4954644;28;20464;-72
2023/10/08 08:46:59;;;;;;;2.43;0.83;;;12.60;99.90;;;;;;4954596;28;20500;-72
2023/10/08 08:49:29;;;;;;;1.10;0.63;;;12.60;99.90;;;;;;4946743;28;20828;-72
2023/10/08 08:52:00;;;;;;;0.80;0.80;;;12.60;99.90;;;;;;4939679;28;20489;-72
2023/10/08 08:54:30;;;;;;;0.77;0.77;;;12.70;99.90;;;;;;4943394;29;20476;-72
2023/10/08 08:56:57;;;;;;;2.13;0.63;;;12.70;99.90;;;;;;4943459;29;20487;-72
2023/10/08 08:59:24;;;;;;;1.27;1.17;;;12.80;99.90;;;;;;4938090;29;20496;-72
2023/10/08 09:01:51;;;;;;;1.23;1.07;;;12.80;99.90;;;;;;4953969;28;20502;-72
2023/10/08 09:04:30;;;;;;;0.73;0.73;;;12.80;99.90;;;;;;4953995;28;21023;-72
2023/10/08 09:06:58;;;;;;;1.20;1.10;;;12.80;99.90;;;;;;4954137;28;20464;-72
2023/10/08 09:09:32;;;;;;;2.30;0.73;;;12.90;99.90;;;;;;4957414;28;20464;-72
2023/10/08 09:11:59;;;;;;;0.73;0.73;;;12.90;99.90;;;;;;4957489;28;20484;-72
2023/10/08 09:14:29;;;;;;;1.50;0.77;;;13.00;99.90;;;;;;4957081;28;20985;-73
2023/10/08 09:16:56;;;;;;;0.83;0.60;;;13.00;99.90;;;;;;4957190;28;20956;-72
2023/10/08 09:19:24;;;;;;;2.57;0.60;;;13.10;99.90;;;;;;4957217;28;20520;-72
2023/10/08 09:22:04;;;;;;;2.33;0.60;;;13.10;99.90;;;;;;4957394;28;20484;-72
2023/10/08 09:24:30;;;;;;;1.50;0.90;;;13.10;99.90;;;;;;4946019;28;20524;-72
2023/10/08 09:26:58;;;;;;;0.90;0.90;;;13.20;99.90;;;;;;4937790;29;20561;-72
2023/10/08 09:29:25;;;;;;;1.43;0.77;;;13.20;99.90;;;;;;4940791;29;20947;-72
2023/10/08 09:31:56;;;;;;;0.60;0.60;;;13.20;99.90;;;;;;4948763;28;20477;-71
2023/10/08 09:34:26;;;;;;;1.00;1.00;;;13.20;99.90;;;;;;4956772;28;20479;-72
2023/10/08 09:36:54;;;;;;;1.00;0.80;;;13.30;99.90;;;;;;4950593;28;20473;-72
2023/10/08 09:39:24;;;;;;;0.87;0.87;;;13.40;99.90;;;;;;4955682;29;20484;-72
2023/10/08 09:41:53;;;;;;;0.90;0.90;;;13.40;99.90;;;;;;4956534;28;20516;-71
2023/10/08 09:44:20;;;;;;;1.10;1.10;;;13.40;99.90;;;;;;4956382;28;20522;-72
2023/10/08 09:46:53;;;;;;;1.13;0.77;;;13.50;99.90;;;;;;4956843;28;20469;-72
2023/10/08 09:49:25;;;;;;;0.60;0.60;;;13.60;99.90;;;;;;4956640;28;20468;-72
2023/10/08 09:51:52;;;;;;;2.37;0.60;;;13.70;99.90;;;;;;4956750;28;20492;-72
2023/10/08 09:54:26;;;;;;;0.50;0.50;;;13.70;99.90;;;;;;4957886;28;20468;-72
2023/10/08 09:56:53;;;;;;;0.90;0.90;;;13.80;99.90;;;;;;4951305;28;20480;-72
2023/10/08 09:59:21;;;;;;;2.43;1.00;;;13.90;99.90;;;;;;4954127;29;20464;-72
2023/10/08 10:01:48;;;;;;;2.23;0.90;;;14.00;99.90;;;;;;4943284;29;20499;-72
2023/10/08 10:04:24;;;;;;;1.23;1.00;;;14.00;99.90;;;;;;4954941;28;20465;-72
2023/10/08 10:06:52;;;;;;;0.67;0.67;;;14.10;99.90;;;;;;4945434;29;20585;-72
2023/10/08 10:09:24;;;;;;;1.67;1.10;;;14.00;99.90;;;;;;4947777;29;20468;-72
2023/10/08 10:11:52;;;;;;;0.83;0.43;;;14.00;99.90;;;;;;4950285;28;20533;-72
2023/10/08 10:14:18;;;;;;;1.00;1.00;;;14.10;99.90;;;;;;4973066;23;20507;-70
2023/10/08 10:16:49;;;;;;;0.40;0.40;;;14.10;99.90;;;;;;4956062;28;20457;-71
2023/10/08 10:19:22;;;;;;;1.03;0.70;;;14.10;99.90;;;;;;4955018;28;20461;-70
2023/10/08 10:21:49;;;;;;;0.87;0.87;;;14.00;99.90;;;;;;4955792;28;20828;-71
2023/10/08 10:24:34;;;;;;;0.83;0.60;;;13.90;99.90;;;;;;4955854;28;20509;-71
2023/10/08 10:27:11;;;;;;;0.50;0.50;;;13.90;99.90;;;;;;4955422;28;20849;-71
2023/10/08 10:29:39;;;;;;;0.87;0.60;;;14.00;99.90;;;;;;4948590;29;20467;-71
2023/10/08 10:32:06;;;;;;;0.60;0.60;;;14.10;99.90;;;;;;4955269;28;20465;-71
2023/10/08 10:34:34;;;;;;;1.60;0.70;;;14.20;99.90;;;;;;4955950;28;20480;-73
2023/10/08 10:37:08;;;;;;;3.70;0.60;;;14.30;99.90;;;;;;4956487;28;20576;-72
2023/10/08 10:39:41;;;;;;;0.93;0.67;;;14.30;99.90;;;;;;4956307;28;20497;-71
2023/10/08 10:42:20;;;;;;;1.40;0.83;;;14.30;99.90;;;;;;4956125;28;20529;-73
2023/10/08 10:44:49;;;;;;;0.80;0.60;;;14.40;99.90;;;;;;4955549;28;20520;-71
2023/10/08 10:47:42;;;;;;;0.70;0.40;;;14.50;99.90;;;;;;4956539;28;20477;-73
2023/10/08 10:50:26;;;;;;;0.80;0.53;;;14.50;99.90;;;;;;4956268;28;20491;-72
2023/10/08 10:52:52;;;;;;;1.50;0.67;;;14.60;99.90;;;;;;4955593;28;20458;-72
2023/10/08 10:55:31;;;;;;;0.70;0.70;;;14.70;99.90;;;;;;4955416;28;20960;-71
2023/10/08 10:58:04;;;;;;;0.60;0.60;;;14.60;99.90;;;;;;4955730;28;20852;-72
2023/10/08 11:00:56;;;;;;;2.93;0.90;;;14.70;99.90;;;;;;4955877;28;20576;-72
2023/10/08 11:03:24;;;;;;;2.77;1.10;;;14.70;99.90;;;;;;4955394;28;20575;-72
2023/10/08 11:05:59;;;;;;;0.80;0.80;;;14.80;99.90;;;;;;4955290;28;20474;-73
2023/10/08 11:08:34;;;;;;;0.40;0.40;;;14.70;99.90;;;;;;4955048;28;20466;-73
2023/10/08 11:11:05;;;;;;;1.40;0.70;;;14.80;99.90;;;;;;4955299;28;20461;-72
2023/10/08 11:13:37;;;;;;;1.47;1.07;;;14.90;99.90;;;;;;4955753;28;20502;-72
2023/10/08 11:16:05;;;;;;;1.17;0.90;;;14.90;99.90;;;;;;4955107;28;20556;-74
2023/10/08 11:18:32;;;;;;;1.13;1.13;;;14.90;99.90;;;;;;4955343;28;20467;-73
2023/10/08 11:21:13;;;;;;;2.80;0.80;;;14.90;99.90;;;;;;4954756;28;20522;-72
2023/10/08 11:23:43;;;;;;;1.03;0.80;;;15.00;99.90;;;;;;4954209;28;20486;-72
2023/10/08 11:26:12;;;;;;;0.80;0.80;;;15.00;99.90;;;;;;4954596;28;20474;-73
2023/10/08 11:28:42;;;;;;;1.23;0.73;;;14.90;99.90;;;;;;4954134;28;20470;-73
2023/10/08 11:31:11;;;;;;;1.13;0.63;;;14.80;99.90;;;;;;4954199;28;20850;-73
2023/10/08 11:33:39;;;;;;;0.90;0.63;;;14.80;99.90;;;;;;4954239;28;20487;-73
2023/10/08 11:36:18;;;;;;;0.43;0.43;;;14.70;99.90;;;;;;4954250;28;20467;-72
2023/10/08 11:38:47;;;;;;;1.27;0.50;;;14.60;99.90;;;;;;4954116;28;20477;-73
2023/10/08 11:41:21;;;;;;;1.13;0.87;;;14.70;99.90;;;;;;4954110;28;20539;-73
2023/10/08 11:43:53;;;;;;;0.63;0.63;;;14.70;99.90;;;;;;4954355;28;20491;-73
2023/10/08 11:46:21;;;;;;;2.60;0.70;;;14.70;99.90;;;;;;4954357;28;20502;-73
2023/10/08 11:48:48;;;;;;;1.43;0.60;;;14.80;99.90;;;;;;4954213;28;20478;-73
2023/10/08 11:51:17;;;;;;;1.70;0.60;;;14.90;99.90;;;;;;4953930;28;20473;-72
2023/10/08 11:53:44;;;;;;;0.80;0.80;;;15.00;99.90;;;;;;4953702;28;21097;-72
2023/10/08 11:56:13;;;;;;;0.90;0.90;;;15.20;99.90;;;;;;4954081;28;20535;-73
2023/10/08 11:58:44;;;;;;;0.50;0.50;;;15.40;99.90;;;;;;4954170;28;20526;-72
2023/10/08 12:01:15;;;;;;;0.90;0.90;;;15.40;99.90;;;;;;4953774;28;20503;-72
2023/10/08 12:03:43;;;;;;;0.67;0.67;;;15.30;99.90;;;;;;4953781;28;20966;-73
2023/10/08 12:06:15;;;;;;;0.97;0.33;;;15.40;99.90;;;;;;4954470;28;20474;-73
2023/10/08 12:08:44;;;;;;;0.30;0.30;;;15.40;99.90;;;;;;4954560;28;20499;-71
2023/10/08 12:11:12;;;;;;;0.73;0.73;;;15.50;99.90;;;;;;4954325;28;20478;-72
2023/10/08 12:13:44;;;;;;;0.43;0.43;;;15.50;99.90;;;;;;4953716;28;20515;-72
2023/10/08 12:16:18;;;;;;;0.90;0.90;;;15.50;99.90;;;;;;4954025;28;20476;-73
2023/10/08 12:18:52;;;;;;;0.60;0.60;;;15.40;99.90;;;;;;4953797;28;20954;-73
2023/10/08 12:21:20;;;;;;;0.87;0.87;;;15.30;99.90;;;;;;4953799;28;20666;-73
2023/10/08 12:23:47;;;;;;;0.90;0.90;;;15.50;99.90;;;;;;4953485;28;20486;-73
2023/10/08 12:26:18;;;;;;;3.23;2.37;;;15.60;99.90;;;;;;4953868;28;20464;-73
2023/10/08 12:28:48;;;;;;;4.67;3.77;;;15.70;99.90;;;;;;4954111;28;20471;-73
2023/10/08 12:31:16;;;;;;;1.17;1.17;;;15.90;99.90;;;;;;4953525;28;20563;-72
2023/10/08 12:33:44;;;;;;;1.77;1.70;;;15.90;99.90;;;;;;4953460;28;20554;-73
2023/10/08 12:36:12;;;;;;;1.90;0.70;;;16.00;99.90;;;;;;4953417;28;20468;-72
2023/10/08 12:38:39;;;;;;;1.53;1.00;;;16.00;99.90;;;;;;4953814;28;20472;-71
2023/10/08 12:41:11;;;;;;;1.33;1.33;;;15.90;99.90;;;;;;4953882;28;20855;-71
2023/10/08 12:43:39;;;;;;;0.93;0.90;;;15.90;99.90;;;;;;4955581;28;20654;-72
2023/10/08 12:46:10;;;;;;;1.27;0.80;;;16.00;99.90;;;;;;4958076;28;20473;-73
2023/10/08 12:48:38;;;;;;;1.63;0.90;;;16.10;99.90;;;;;;4959532;28;20468;-73
2023/10/08 12:51:06;;;;;;;0.67;0.60;;;16.10;99.90;;;;;;4958762;28;20477;-73
2023/10/08 12:53:34;;;;;;;1.50;0.60;;;16.10;99.90;;;;;;4958540;28;20580;-73
2023/10/08 12:56:05;;;;;;;3.50;0.80;;;16.10;99.90;;;;;;4958375;28;20467;-72
2023/10/08 12:58:38;;;;;;;0.57;0.57;;;15.90;99.90;;;;;;4958283;28;20582;-74
2023/10/08 13:01:09;;;;;;;0.70;0.70;;;15.80;99.90;;;;;;4949383;28;21118;-72
2023/10/08 13:03:41;;;;;;;0.57;0.57;;;15.70;99.90;;;;;;4957525;28;20937;-73
2023/10/08 13:06:14;;;;;;;0.73;0.70;;;15.60;99.90;;;;;;4957468;28;20837;-73
2023/10/08 13:08:41;;;;;;;0.73;0.73;;;15.50;99.90;;;;;;4957314;28;20507;-73
2023/10/08 13:11:08;;;;;;;1.70;0.70;;;15.50;99.90;;;;;;4949301;28;20463;-72
2023/10/08 13:13:36;;;;;;;4.30;2.80;;;15.40;99.90;;;;;;4957121;28;20503;-73
2023/10/08 13:16:07;;;;;;;4.90;0.70;;;15.40;99.90;;;;;;4956578;28;20481;-73
2023/10/08 13:18:37;;;;;;;3.17;2.87;;;15.40;99.90;;;;;;4957279;28;20464;-72
2023/10/08 13:21:04;;;;;;;3.57;2.20;;;15.50;99.90;;;;;;4956516;28;20507;-69
2023/10/08 13:23:35;;;;;;;4.30;2.30;;;15.50;99.90;;;;;;4957900;28;20499;-71
2023/10/08 13:26:04;;;;;;;0.80;0.73;;;15.50;99.90;;;;;;4957048;28;21009;-71
2023/10/08 13:28:33;;;;;;;1.80;1.70;;;15.60;99.90;;;;;;4949384;29;20472;-71
2023/10/08 13:31:00;;;;;;;1.43;0.90;;;15.50;99.90;;;;;;4956672;28;20467;-71
2023/10/08 13:33:28;;;;;;;1.33;1.33;;;15.60;99.90;;;;;;4956505;28;21009;-70
2023/10/08 13:35:56;;;;;;;1.60;1.20;;;15.60;99.90;;;;;;4956450;28;20467;-71
2023/10/08 13:38:23;;;;;;;1.27;1.27;;;15.50;99.90;;;;;;4956464;28;20465;-72
2023/10/08 13:41:03;;;;;;;1.60;1.00;;;15.60;99.90;;;;;;4956472;28;20499;-71
2023/10/08 13:43:34;;;;;;;1.23;0.70;;;15.60;99.90;;;;;;4956480;28;20491;-71
2023/10/08 13:46:04;;;;;;;0.60;0.60;;;15.70;99.90;;;;;;4956172;28;21009;-71
2023/10/08 13:48:32;;;;;;;1.27;0.80;;;15.70;99.90;;;;;;4956407;28;20469;-73
2023/10/08 13:51:03;;;;;;;0.73;0.73;;;15.80;99.90;;;;;;4956049;28;20500;-71
2023/10/08 13:53:30;;;;;;;1.40;0.63;;;15.80;99.90;;;;;;4956067;28;20848;-71
2023/10/08 13:56:00;;;;;;;0.70;0.70;;;15.80;99.90;;;;;;4954793;28;20842;-72
2023/10/08 13:58:28;;;;;;;0.83;0.83;;;15.80;99.90;;;;;;4955904;28;20485;-71
2023/10/08 14:00:55;;;;;;;0.97;0.90;;;15.80;99.90;;;;;;4956124;28;20489;-71
2023/10/08 14:03:22;;;;;;;1.33;1.00;;;15.80;99.90;;;;;;4947936;28;20619;-71
2023/10/08 14:05:50;;;;;;;1.60;1.27;;;15.80;99.90;;;;;;4948186;28;20472;-71
2023/10/08 14:08:18;;;;;;;1.20;1.20;;;15.80;99.90;;;;;;4955560;28;21017;-71
2023/10/08 14:10:48;;;;;;;0.77;0.77;;;15.80;99.90;;;;;;4955718;28;20973;-72
2023/10/08 14:13:19;;;;;;;0.60;0.60;;;15.70;99.90;;;;;;4955219;28;20496;-71
2023/10/08 14:15:55;;;;;;;0.90;0.80;;;15.70;99.90;;;;;;4955871;28;20778;-71
2023/10/08 14:18:26;;;;;;;0.93;0.93;;;15.70;99.90;;;;;;4955712;28;20511;-71
2023/10/08 14:20:54;;;;;;;1.30;1.30;;;15.70;99.90;;;;;;4948168;28;20492;-71
2023/10/08 14:23:25;;;;;;;1.17;1.17;;;15.70;99.90;;;;;;4955676;28;20530;-71
2023/10/08 14:25:51;;;;;;;3.20;1.03;;;15.70;99.90;;;;;;4955624;28;20520;-71
2023/10/08 14:31:00;;;;;;;0.60;0.60;;;15.70;99.90;;;;;;4955395;28;20801;-71
2023/10/08 14:33:32;;;;;;;2.23;1.47;;;15.70;99.90;;;;;;4955966;28;20484;-71
2023/10/08 14:44:14;;;;;;;1.80;0.97;;;15.60;99.90;;;;;;4955503;29;20755;-71
2023/10/08 14:46:41;;;;;;;1.43;1.00;;;15.60;99.90;;;;;;4955283;28;21062;-71
2023/10/08 14:49:09;;;;;;;0.60;0.60;;;15.60;99.90;;;;;;4955301;28;20472;-71
2023/10/08 14:51:40;;;;;;;0.77;0.77;;;15.50;99.90;;;;;;4955747;28;20503;-71
2023/10/08 14:54:08;;;;;;;1.13;1.13;;;15.40;99.90;;;;;;4955391;28;20500;-71
2023/10/08 14:56:36;;;;;;;0.97;0.97;;;15.40;99.90;;;;;;4955397;28;20468;-71
2023/10/08 14:59:03;;;;;;;3.90;0.80;;;15.30;99.90;;;;;;4955014;28;20836;-70
2023/10/08 15:01:32;;;;;;;1.40;1.40;;;15.30;99.90;;;;;;4955697;28;20503;-71
2023/10/08 15:03:59;;;;;;;1.00;1.00;;;15.30;99.90;;;;;;4954841;28;20493;-70
2023/10/08 15:06:31;;;;;;;2.00;1.90;;;15.20;99.90;;;;;;4951057;28;20527;-71
2023/10/08 15:08:58;;;;;;;0.87;0.87;;;15.20;99.90;;;;;;4951063;29;20468;-72
2023/10/08 15:11:30;;;;;;;1.30;1.30;;;15.10;99.90;;;;;;4955109;28;20550;-72
2023/10/08 15:13:57;;;;;;;0.90;0.90;;;15.10;99.90;;;;;;4955064;28;20529;-71
2023/10/08 15:16:26;;;;;;;0.87;0.87;;;15.00;99.90;;;;;;4954922;28;20477;-71
2023/10/08 15:18:53;;;;;;;1.00;1.00;;;15.00;99.90;;;;;;4958493;28;20471;-71
2023/10/08 15:21:21;;;;;;;4.13;2.73;;;15.00;99.90;;;;;;4957071;28;20916;-71
2023/10/08 15:23:48;;;;;;;5.43;5.00;;;14.90;99.90;;;;;;4955893;28;20543;-72
2023/10/08 15:26:15;;;;;;;4.10;3.80;;;14.80;99.90;;;;;;4956485;28;20468;-72
2023/10/08 15:28:43;;;;;;;2.63;2.50;;;14.80;99.90;;;;;;4956165;28;20945;-69
2023/10/08 15:31:10;;;;;;;5.10;3.50;;;14.80;99.90;;;;;;4956736;28;20467;-72
2023/10/08 15:33:38;;;;;;;2.67;2.47;;;14.70;99.90;;;;;;4957831;28;20487;-72
2023/10/08 15:36:05;;;;;;;1.90;1.80;;;14.70;99.90;;;;;;4958026;28;20499;-71
2023/10/08 15:38:32;;;;;;;4.80;2.90;;;14.70;99.90;;;;;;4958291;28;20474;-73
2023/10/08 15:41:00;;;;;;;3.10;2.90;;;14.70;99.90;;;;;;4958370;28;20463;-73
2023/10/08 15:43:27;;;;;;;2.87;2.67;;;14.60;99.90;;;;;;4957093;28;20497;-71
2023/10/08 15:45:56;;;;;;;2.13;2.03;;;14.60;99.90;;;;;;4955922;28;20461;-70
2023/10/08 15:48:24;;;;;;;1.87;1.80;;;14.60;99.90;;;;;;4954621;28;20473;-73
2023/10/08 15:50:51;;;;;;;3.23;2.23;;;14.60;99.90;;;;;;4954936;28;20469;-71
2023/10/08 15:53:18;;;;;;;1.97;1.87;;;14.50;99.90;;;;;;4954452;28;20493;-71
2023/10/08 15:55:45;;;;;;;1.70;1.60;;;14.50;99.90;;;;;;4954087;28;20547;-72
2023/10/08 15:58:11;;;;;;;2.40;2.30;;;14.50;99.90;;;;;;4954141;28;20795;-72
2023/10/08 16:00:38;;;;;;;4.60;3.63;;;14.50;99.90;;;;;;4953992;28;20569;-72
2023/10/08 16:03:08;;;;;;;3.63;3.37;;;14.40;99.90;;;;;;4953669;28;20565;-71
2023/10/08 16:05:35;;;;;;;3.70;3.40;;;14.40;99.90;;;;;;4953775;28;20502;-72
2023/10/08 16:08:01;;;;;;;2.73;2.30;;;14.30;99.90;;;;;;4954505;28;20539;-72
2023/10/08 16:10:31;;;;;;;2.97;2.50;;;14.30;99.90;;;;;;4953735;28;20493;-71
2023/10/08 16:12:58;;;;;;;2.97;2.77;;;14.30;99.90;;;;;;4954065;28;20504;-73
2023/10/08 16:15:25;;;;;;;2.87;2.67;;;14.20;99.90;;;;;;4967067;23;20506;-69
2023/10/08 16:17:52;;;;;;;5.20;3.10;;;14.20;99.90;;;;;;4952978;28;20634;-68
2023/10/08 16:20:21;;;;;;;3.73;2.63;;;14.10;99.90;;;;;;4953347;28;20466;-69
2023/10/08 16:22:49;;;;;;;2.40;2.20;;;14.10;99.90;;;;;;4953641;28;20584;-69
2023/10/08 16:25:17;;;;;;;2.10;2.00;;;14.00;99.90;;;;;;4938852;28;20491;-69
2023/10/08 16:27:48;;;;;;;4.17;3.83;;;14.00;99.90;;;;;;4934333;29;20467;-70
2023/10/08 16:30:16;;;;;;;3.00;2.90;;;14.00;99.90;;;;;;4934168;29;20573;-70
2023/10/08 16:32:43;;;;;;;3.30;3.10;;;14.00;99.90;;;;;;4934155;29;20466;-70
2023/10/08 16:35:11;;;;;;;4.67;4.17;;;13.90;99.90;;;;;;4934374;29;20491;-70
2023/10/08 16:37:40;;;;;;;4.40;4.10;;;13.90;99.90;;;;;;4934250;29;20472;-71
2023/10/08 16:40:07;;;;;;;4.20;3.87;;;13.90;99.90;;;;;;4934063;29;20467;-70
2023/10/08 16:42:35;;;;;;;5.50;5.00;;;13.90;99.90;;;;;;4934162;29;20563;-70
2023/10/08 16:45:02;;;;;;;6.33;5.73;;;13.90;99.90;;;;;;4936371;29;20491;-70
2023/10/08 16:47:28;;;;;;;6.03;5.60;;;13.80;99.90;;;;;;4936558;29;20561;-70
2023/10/08 16:49:55;;;;;;;9.77;9.07;;;13.80;99.90;;;;;;4934445;29;20466;-70
2023/10/08 16:52:22;;;;;;;8.30;7.60;;;13.80;99.90;;;;;;4934297;29;20462;-70
2023/10/08 16:54:52;;;;;;;4.90;4.43;;;13.80;99.90;;;;;;4934056;29;20486;-70
2023/10/08 16:57:20;;;;;;;6.90;6.23;;;13.70;99.90;;;;;;4934164;29;20976;-70
2023/10/08 16:59:47;;;;;;;5.40;4.90;;;13.70;99.90;;;;;;4934110;29;20470;-70
2023/10/08 17:02:14;;;;;;;4.23;4.00;;;13.70;99.90;;;;;;4934338;29;20502;-70
2023/10/08 17:04:41;;;;;;;6.60;6.00;;;13.60;99.90;;;;;;4934271;29;20490;-70
2023/10/08 17:07:08;;;;;;;5.30;4.00;;;13.60;99.90;;;;;;4934378;29;20833;-70
2023/10/08 17:09:35;;;;;;;5.20;4.80;;;13.60;99.90;;;;;;4934339;29;20469;-70
2023/10/08 17:12:03;;;;;;;4.40;4.00;;;13.60;99.90;;;;;;4934199;29;20468;-70
2023/10/08 17:14:30;;;;;;;10.03;5.57;;;13.60;99.90;;;;;;4933673;29;20493;-70
2023/10/08 17:16:59;;;;;;;13.30;8.73;;;13.60;99.90;;;;;;4934303;29;20473;-70
2023/10/08 17:19:26;;;;;;;11.93;7.43;;;13.60;99.90;;;;;;4933956;29;20477;-70
2023/10/08 17:21:53;;;;;;;7.07;6.37;;;13.60;99.90;;;;;;4934058;29;21036;-70
2023/10/08 17:24:19;;;;;;;10.93;5.90;;;13.50;99.90;;;;;;4933909;29;20486;-70